Lexington, Georgia
Current Conditions -  °F | °C
As of 11:51 AM on Tuesday 27 Jan 2015 (Local Time) from KAHN Reporting Station
Scattered Clouds Scattered Clouds  
Wind Chill: 43°   Ceiling: Unl
Heat Index: 48°   Visibility: 10mi
Dew Point: 27°   Wind: 10mph
Humidity: 44%   Direction: 300°WNW
Pressure: 29.9"   Gusts: 24mph
Location:  33.87°N, 83.11°W
Report Text: KAHN 271651Z 30009G21KT 10SM SCT041 SCT049 09/M03 A2990 RMK AO2 SLP130 T00891028
Loading
Personal Weather Stations






























Interactive Weather Map New forecast layout! Learn more

10-Day Weather Forecast

Advertisements
Track Severe Weather on mobile